sensor_id;sensor_type;location;lat;lon;timestamp;temperature;humidity
65824;SHT31;52585;47.566;19.056;2022-12-13T20:55:33;2.92;56.61
65824;SHT31;52585;47.566;19.056;2022-12-13T20:57:59;2.99;56.41
65824;SHT31;52585;47.566;19.056;2022-12-13T21:00:26;2.98;56.46
65824;SHT31;52585;47.566;19.056;2022-12-13T21:02:52;3.01;56.71
65824;SHT31;52585;47.566;19.056;2022-12-13T21:05:18;3.03;56.69
65824;SHT31;52585;47.566;19.056;2022-12-13T21:07:44;3.09;56.72
65824;SHT31;52585;47.566;19.056;2022-12-13T21:10:28;3.14;56.60
65824;SHT31;52585;47.566;19.056;2022-12-13T21:12:55;3.16;56.71
65824;SHT31;52585;47.566;19.056;2022-12-13T21:15:21;3.17;56.68
65824;SHT31;52585;47.566;19.056;2022-12-13T21:17:46;3.20;56.66
65824;SHT31;52585;47.566;19.056;2022-12-13T21:20:12;3.24;56.47
65824;SHT31;52585;47.566;19.056;2022-12-13T21:22:38;3.26;56.36
65824;SHT31;52585;47.566;19.056;2022-12-13T21:25:04;3.27;56.31
65824;SHT31;52585;47.566;19.056;2022-12-13T21:27:31;3.32;56.27
65824;SHT31;52585;47.566;19.056;2022-12-13T21:29:56;3.35;56.27
65824;SHT31;52585;47.566;19.056;2022-12-13T21:32:22;3.38;56.24
65824;SHT31;52585;47.566;19.056;2022-12-13T21:34:48;3.40;56.26
65824;SHT31;52585;47.566;19.056;2022-12-13T21:37:13;3.49;56.25
65824;SHT31;52585;47.566;19.056;2022-12-13T21:39:39;3.51;56.05
65824;SHT31;52585;47.566;19.056;2022-12-13T21:42:04;3.50;55.97
65824;SHT31;52585;47.566;19.056;2022-12-13T21:44:30;3.50;55.87
65824;SHT31;52585;47.566;19.056;2022-12-13T21:46:55;3.51;55.83
65824;SHT31;52585;47.566;19.056;2022-12-13T21:49:21;3.55;55.64
65824;SHT31;52585;47.566;19.056;2022-12-13T21:51:46;3.57;55.59
65824;SHT31;52585;47.566;19.056;2022-12-13T21:54:12;3.56;55.50
65824;SHT31;52585;47.566;19.056;2022-12-13T21:56:37;3.56;55.44
65824;SHT31;52585;47.566;19.056;2022-12-13T21:59:23;3.59;56.65
65824;SHT31;52585;47.566;19.056;2022-12-13T22:02:05;3.58;55.50
65824;SHT31;52585;47.566;19.056;2022-12-13T22:04:40;3.55;55.32
65824;SHT31;52585;47.566;19.056;2022-12-13T22:07:26;3.51;55.35
65824;SHT31;52585;47.566;19.056;2022-12-13T22:09:58;3.44;55.38
65824;SHT31;52585;47.566;19.056;2022-12-13T22:14:57;3.33;55.30
65824;SHT31;52585;47.566;19.056;2022-12-13T22:17:23;3.27;55.33
65824;SHT31;52585;47.566;19.056;2022-12-13T22:19:51;3.19;55.32
65824;SHT31;52585;47.566;19.056;2022-12-13T22:22:18;3.13;55.18
65824;SHT31;52585;47.566;19.056;2022-12-13T22:24:46;3.12;55.31
65824;SHT31;52585;47.566;19.056;2022-12-13T22:27:13;3.12;55.23
65824;SHT31;52585;47.566;19.056;2022-12-13T22:29:39;3.09;55.30
65824;SHT31;52585;47.566;19.056;2022-12-13T22:32:04;3.06;55.18
65824;SHT31;52585;47.566;19.056;2022-12-13T22:34:31;3.03;55.03
65824;SHT31;52585;47.566;19.056;2022-12-13T22:36:57;3.01;55.04
65824;SHT31;52585;47.566;19.056;2022-12-13T22:39:23;3.01;54.96
65824;SHT31;52585;47.566;19.056;2022-12-13T22:41:49;3.03;54.93
65824;SHT31;52585;47.566;19.056;2022-12-13T22:44:16;3.05;54.64
65824;SHT31;52585;47.566;19.056;2022-12-13T22:46:44;3.02;54.71
65824;SHT31;52585;47.566;19.056;2022-12-13T22:49:11;2.96;54.72
65824;SHT31;52585;47.566;19.056;2022-12-13T22:51:37;2.90;54.76
65824;SHT31;52585;47.566;19.056;2022-12-13T22:54:03;2.84;54.90
65824;SHT31;52585;47.566;19.056;2022-12-13T22:56:29;2.79;54.85
65824;SHT31;52585;47.566;19.056;2022-12-13T22:58:57;2.74;54.84
65824;SHT31;52585;47.566;19.056;2022-12-13T23:01:30;2.69;54.84
65824;SHT31;52585;47.566;19.056;2022-12-13T23:03:59;2.65;54.86
65824;SHT31;52585;47.566;19.056;2022-12-13T23:06:26;2.59;54.82
65824;SHT31;52585;47.566;19.056;2022-12-13T23:08:55;2.51;54.87
65824;SHT31;52585;47.566;19.056;2022-12-13T23:11:26;2.45;54.92
65824;SHT31;52585;47.566;19.056;2022-12-13T23:14:13;2.37;54.88
65824;SHT31;52585;47.566;19.056;2022-12-13T23:16:45;2.33;54.96
65824;SHT31;52585;47.566;19.056;2022-12-13T23:19:14;2.27;54.97
65824;SHT31;52585;47.566;19.056;2022-12-13T23:21:41;2.22;54.95
65824;SHT31;52585;47.566;19.056;2022-12-13T23:24:07;2.19;55.00
65824;SHT31;52585;47.566;19.056;2022-12-13T23:26:34;2.16;55.09
65824;SHT31;52585;47.566;19.056;2022-12-13T23:29:02;2.11;55.21
65824;SHT31;52585;47.566;19.056;2022-12-13T23:31:31;2.09;55.26
65824;SHT31;52585;47.566;19.056;2022-12-13T23:34:02;2.09;55.31
65824;SHT31;52585;47.566;19.056;2022-12-13T23:36:28;2.06;55.36
65824;SHT31;52585;47.566;19.056;2022-12-13T23:38:57;2.03;55.37
65824;SHT31;52585;47.566;19.056;2022-12-13T23:41:25;2.01;55.43
65824;SHT31;52585;47.566;19.056;2022-12-13T23:43:53;1.98;55.47
65824;SHT31;52585;47.566;19.056;2022-12-13T23:46:22;1.95;55.52
65824;SHT31;52585;47.566;19.056;2022-12-13T23:48:59;1.93;55.56
65824;SHT31;52585;47.566;19.056;2022-12-13T23:51:28;1.91;55.60
65824;SHT31;52585;47.566;19.056;2022-12-13T23:53:55;1.88;55.63
65824;SHT31;52585;47.566;19.056;2022-12-13T23:56:21;1.88;55.62
65824;SHT31;52585;47.566;19.056;2022-12-13T23:58:47;1.86;55.62
